createdAt,value
2019-03-13T00:00:43.338Z,100254.28
2019-03-13T00:01:44.951Z,100252.61
2019-03-13T00:02:47.451Z,100248.94
2019-03-13T00:03:48.928Z,100248.60
2019-03-13T00:04:50.308Z,100245.93
2019-03-13T00:05:51.793Z,100246.27
2019-03-13T00:06:54.280Z,100243.59
2019-03-13T00:07:55.659Z,100244.45
2019-03-13T00:08:57.084Z,100241.27
2019-03-13T00:09:58.454Z,100238.59
2019-03-13T00:10:59.854Z,100245.65
2019-03-13T00:12:01.323Z,100243.94
2019-03-13T00:13:03.820Z,100234.59
2019-03-13T00:14:05.402Z,100237.27
2019-03-13T00:15:09.181Z,100237.27
2019-03-13T00:16:10.776Z,100231.47
2019-03-13T00:17:12.171Z,100230.58
2019-03-13T00:18:13.897Z,100230.95
2019-03-13T00:19:15.419Z,100223.90
2019-03-13T00:20:16.952Z,100230.58
2019-03-13T00:21:18.392Z,100225.75
2019-03-13T00:22:19.871Z,100230.23
2019-03-13T00:23:21.263Z,100224.89
2019-03-13T00:24:22.665Z,100231.58
2019-03-13T00:25:24.052Z,100226.57
2019-03-13T00:26:25.444Z,100227.56
2019-03-13T00:27:26.832Z,100225.75
2019-03-13T00:28:28.212Z,100225.75
2019-03-13T00:29:29.638Z,100226.57
2019-03-13T00:30:31.113Z,100223.90
2019-03-13T00:31:32.572Z,100218.55
2019-03-13T00:32:33.945Z,100222.11
2019-03-13T00:33:35.342Z,100219.44
2019-03-13T00:34:36.764Z,100226.95
2019-03-13T00:35:38.149Z,100219.44
2019-03-13T00:36:39.545Z,100215.88
2019-03-13T00:37:40.969Z,100218.55
2019-03-13T00:38:42.464Z,100218.45
2019-03-13T00:39:43.986Z,100218.45
2019-03-13T00:40:47.156Z,100219.27
2019-03-13T00:41:48.563Z,100213.78
2019-03-13T00:42:49.936Z,100208.44
2019-03-13T00:43:52.341Z,100208.44
2019-03-13T00:44:53.761Z,100210.26
2019-03-13T00:45:55.170Z,100204.91
2019-03-13T00:46:56.558Z,100206.59
2019-03-13T00:47:57.944Z,100203.58
2019-03-13T00:48:59.327Z,100198.58
2019-03-13T00:50:00.739Z,100198.09
2019-03-13T00:51:02.108Z,100191.41
2019-03-13T00:52:03.510Z,100199.43
2019-03-13T00:53:04.997Z,100195.77
2019-03-13T00:54:06.394Z,100195.58
2019-03-13T00:55:07.881Z,100196.92
2019-03-13T00:56:09.302Z,100192.91
2019-03-13T00:57:11.789Z,100192.43
2019-03-13T00:58:14.977Z,100192.77
2019-03-13T00:59:16.368Z,100191.92
2019-03-13T01:00:22.581Z,100189.59
2019-03-13T01:01:31.441Z,100197.12
2019-03-13T01:02:37.740Z,100187.25
2019-03-13T01:03:46.585Z,100196.95
2019-03-13T01:04:49.889Z,100192.94
2019-03-13T01:05:53.179Z,100191.60
2019-03-13T01:06:56.154Z,100190.44
2019-03-13T01:07:57.541Z,100187.25
2019-03-13T01:08:58.913Z,100180.23
2019-03-13T01:10:00.303Z,100185.58
2019-03-13T01:11:01.894Z,100184.75
2019-03-13T01:12:04.893Z,100182.08
2019-03-13T01:13:06.304Z,100178.41
2019-03-13T01:14:07.704Z,100178.89
2019-03-13T01:15:09.311Z,100175.22
2019-03-13T01:16:10.848Z,100182.25
2019-03-13T01:17:12.312Z,100177.90
2019-03-13T01:18:13.720Z,100175.56
2019-03-13T01:19:15.139Z,100179.95
2019-03-13T01:20:16.541Z,100180.77
2019-03-13T01:21:18.146Z,100175.08
2019-03-13T01:22:19.620Z,100175.94
2019-03-13T01:23:21.023Z,100172.27
2019-03-13T01:24:24.296Z,100173.95
2019-03-13T01:25:25.703Z,100176.28
2019-03-13T01:26:27.288Z,100173.95
2019-03-13T01:27:28.696Z,100175.28
2019-03-13T01:28:30.109Z,100168.60
2019-03-13T01:29:31.582Z,100172.61
2019-03-13T01:30:34.898Z,100164.59
2019-03-13T01:31:55.873Z,100170.27
2019-03-13T01:32:59.227Z,100163.94
2019-03-13T01:34:18.999Z,100165.44
2019-03-13T01:35:28.153Z,100156.91
2019-03-13T01:36:29.536Z,100154.27
2019-03-13T01:37:30.951Z,100152.25
2019-03-13T01:38:32.328Z,100146.70
2019-03-13T01:39:33.725Z,100142.88
2019-03-13T01:40:35.206Z,100140.20
2019-03-13T01:41:36.603Z,100140.20
2019-03-13T01:42:38.165Z,100137.19
2019-03-13T01:43:39.660Z,100136.19
2019-03-13T01:44:41.060Z,100133.52
2019-03-13T01:45:42.540Z,100131.66
2019-03-13T01:46:43.925Z,100129.84
2019-03-13T01:47:45.348Z,100122.65
2019-03-13T01:48:46.724Z,100126.00
2019-03-13T01:49:48.134Z,100116.16
2019-03-13T01:50:49.504Z,100122.33
2019-03-13T01:51:50.896Z,100117.84
2019-03-13T01:52:52.284Z,100114.66
2019-03-13T01:53:53.676Z,100112.83
2019-03-13T01:54:55.187Z,100105.81
2019-03-13T01:55:57.555Z,100107.48
2019-03-13T01:56:58.944Z,100102.96
2019-03-13T01:58:00.384Z,100100.80
2019-03-13T01:59:01.776Z,100099.29
2019-03-13T02:00:06.786Z,100102.96
2019-03-13T02:01:08.257Z,100099.80
2019-03-13T02:02:12.463Z,100097.47
2019-03-13T02:03:14.078Z,100097.47
2019-03-13T02:04:15.549Z,100100.14
2019-03-13T02:05:17.045Z,100092.95
2019-03-13T02:06:19.420Z,100087.60
2019-03-13T02:07:20.822Z,100082.44
2019-03-13T02:08:22.212Z,100076.57
2019-03-13T02:09:23.737Z,100087.12
2019-03-13T02:10:25.147Z,100086.27
2019-03-13T02:11:26.563Z,100083.59
2019-03-13T02:12:28.071Z,100076.57
2019-03-13T02:13:29.470Z,100084.11
2019-03-13T02:14:30.941Z,100080.09
2019-03-13T02:15:32.340Z,100065.53
2019-03-13T02:16:33.716Z,100073.90
2019-03-13T02:17:35.113Z,100072.23
2019-03-13T02:18:36.621Z,100065.88
2019-03-13T02:19:38.035Z,100064.20
2019-03-13T02:20:39.450Z,100062.39
2019-03-13T02:21:40.963Z,100059.38
2019-03-13T02:22:42.378Z,100061.39
2019-03-13T02:23:43.768Z,100059.53
2019-03-13T02:24:45.243Z,100057.86
2019-03-13T02:25:46.642Z,100060.05
2019-03-13T02:26:48.042Z,100054.53
2019-03-13T02:27:49.444Z,100052.38
2019-03-13T02:28:50.988Z,100051.03
2019-03-13T02:29:52.388Z,100055.86
2019-03-13T02:30:53.896Z,100054.05
2019-03-13T02:31:55.414Z,100062.06
2019-03-13T02:32:56.898Z,100062.06
2019-03-13T02:33:58.510Z,100054.05
2019-03-13T02:34:59.891Z,100051.38
2019-03-13T02:36:01.289Z,100044.50
2019-03-13T02:37:02.785Z,100046.51
2019-03-13T02:38:04.164Z,100047.70
2019-03-13T02:39:05.889Z,100040.68
2019-03-13T02:40:10.643Z,100039.34
2019-03-13T02:41:12.072Z,100035.33
2019-03-13T02:42:13.453Z,100036.67
2019-03-13T02:43:14.837Z,100033.48
2019-03-13T02:44:16.358Z,100032.66
2019-03-13T02:45:17.822Z,100028.13
2019-03-13T02:46:19.225Z,100032.14
2019-03-13T02:47:20.706Z,100023.30
2019-03-13T02:48:22.118Z,100029.47
2019-03-13T02:49:23.597Z,100028.47
2019-03-13T02:50:25.004Z,100029.81
2019-03-13T02:51:26.422Z,100024.31
2019-03-13T02:52:27.834Z,100021.79
2019-03-13T02:53:29.234Z,100026.31
2019-03-13T02:54:30.666Z,100018.63
2019-03-13T02:55:32.040Z,100020.97
2019-03-13T02:56:33.438Z,100023.13
2019-03-13T02:57:34.828Z,100021.64
2019-03-13T02:58:36.224Z,100018.97
2019-03-13T02:59:37.606Z,100017.11
2019-03-13T03:00:46.961Z,100020.64
2019-03-13T03:01:50.296Z,100014.11
2019-03-13T03:02:54.106Z,100012.95
2019-03-13T03:03:57.398Z,100006.42
2019-03-13T03:04:59.059Z,100013.95
2019-03-13T03:06:00.837Z,100005.94
2019-03-13T03:07:02.334Z,100008.42
2019-03-13T03:08:03.712Z,100008.28
2019-03-13T03:09:06.612Z,100000.26
2019-03-13T03:10:11.498Z,99998.59
2019-03-13T03:11:13.082Z,100005.61
2019-03-13T03:12:14.472Z,99998.59
2019-03-13T03:13:16.186Z,99996.59
2019-03-13T03:14:17.664Z,99989.05
2019-03-13T03:15:19.278Z,99992.24
2019-03-13T03:16:20.658Z,99996.25
2019-03-13T03:17:22.212Z,99983.88
2019-03-13T03:18:23.672Z,99991.39
2019-03-13T03:19:25.207Z,99985.89
2019-03-13T03:20:26.666Z,99979.36
2019-03-13T03:21:28.042Z,99984.22
2019-03-13T03:22:29.545Z,99977.54
2019-03-13T03:23:31.033Z,99984.70
2019-03-13T03:24:33.537Z,99981.55
2019-03-13T03:25:34.914Z,99980.55
2019-03-13T03:26:36.336Z,99985.89
2019-03-13T03:27:37.764Z,99973.86
2019-03-13T03:28:39.145Z,99974.19
2019-03-13T03:29:40.575Z,99976.88
2019-03-13T03:30:42.077Z,99976.36
2019-03-13T03:31:43.456Z,99975.02
2019-03-13T03:32:44.892Z,99978.55
2019-03-13T03:33:59.527Z,99972.69
2019-03-13T03:35:01.403Z,99973.02
2019-03-13T03:36:03.094Z,99966.52
2019-03-13T03:37:04.510Z,99967.19
2019-03-13T03:38:05.918Z,99964.18
2019-03-13T03:39:07.358Z,99966.52
2019-03-13T03:40:11.961Z,99965.18
2019-03-13T03:41:13.397Z,99964.66
2019-03-13T03:42:14.870Z,99965.18
2019-03-13T03:43:16.362Z,99957.64
2019-03-13T03:44:20.302Z,99958.65
2019-03-13T03:45:22.819Z,99953.30
2019-03-13T03:46:24.314Z,99953.48
2019-03-13T03:47:25.725Z,99955.83
2019-03-13T03:48:27.133Z,99944.80
2019-03-13T03:49:28.551Z,99944.80
2019-03-13T03:50:29.976Z,99947.47
2019-03-13T03:51:31.382Z,99943.95
2019-03-13T03:52:32.750Z,99944.80
2019-03-13T03:53:34.154Z,99942.95
2019-03-13T03:54:35.529Z,99943.46
2019-03-13T03:55:36.931Z,99945.13
2019-03-13T03:56:38.514Z,99939.45
2019-03-13T03:57:39.973Z,99946.13
2019-03-13T03:58:42.400Z,99935.44
2019-03-13T03:59:43.795Z,99936.78
2019-03-13T04:00:45.192Z,99933.77
2019-03-13T04:01:46.595Z,99936.92
2019-03-13T04:02:48.101Z,99939.11
2019-03-13T04:03:49.588Z,99939.59
2019-03-13T04:04:51.161Z,99926.75
2019-03-13T04:05:52.670Z,99939.11
2019-03-13T04:06:55.198Z,99934.77
2019-03-13T04:07:56.563Z,99931.58
2019-03-13T04:08:57.950Z,99927.57
2019-03-13T04:09:59.329Z,99927.75
2019-03-13T04:11:00.712Z,99926.41
2019-03-13T04:12:02.219Z,99921.07
2019-03-13T04:13:03.667Z,99922.74
2019-03-13T04:14:05.232Z,99925.41
2019-03-13T04:15:09.879Z,99918.73
2019-03-13T04:16:11.264Z,99917.73
2019-03-13T04:17:12.670Z,99917.73
2019-03-13T04:18:14.055Z,99915.88
2019-03-13T04:19:15.444Z,99916.21
2019-03-13T04:20:17.048Z,99914.05
2019-03-13T04:21:18.467Z,99917.88
2019-03-13T04:22:19.863Z,99915.39
2019-03-13T04:23:21.234Z,99910.05
2019-03-13T04:24:22.761Z,99917.88
2019-03-13T04:25:29.304Z,99913.05
2019-03-13T04:26:30.705Z,99902.36
2019-03-13T04:27:32.287Z,99910.72
2019-03-13T04:28:33.741Z,99909.37
2019-03-13T04:29:35.110Z,99904.70
2019-03-13T04:30:36.629Z,99905.70
2019-03-13T04:31:38.055Z,99911.05
2019-03-13T04:32:39.685Z,99903.85
2019-03-13T04:33:41.076Z,99901.70
2019-03-13T04:34:42.497Z,99900.36
2019-03-13T04:35:43.906Z,99899.02
2019-03-13T04:36:45.492Z,99901.70
2019-03-13T04:37:47.359Z,99896.34
2019-03-13T04:38:48.784Z,99897.69
2019-03-13T04:39:50.204Z,99896.69
2019-03-13T04:40:51.780Z,99892.34
2019-03-13T04:41:53.343Z,99884.32
2019-03-13T04:42:54.921Z,99889.15
2019-03-13T04:43:56.352Z,99888.81
2019-03-13T04:44:57.752Z,99882.47
2019-03-13T04:45:59.132Z,99889.48
2019-03-13T04:47:00.537Z,99880.64
2019-03-13T04:48:01.920Z,99876.97
2019-03-13T04:49:03.328Z,99882.80
2019-03-13T04:50:07.238Z,99881.98
2019-03-13T04:51:08.648Z,99875.30
2019-03-13T04:52:10.059Z,99881.31
2019-03-13T04:53:11.568Z,99876.64
2019-03-13T04:54:12.945Z,99876.97
2019-03-13T04:55:15.754Z,99878.64
2019-03-13T04:56:17.129Z,99876.97
2019-03-13T04:57:18.528Z,99869.95
2019-03-13T04:58:19.919Z,99876.45
2019-03-13T04:59:21.319Z,99861.94
2019-03-13T05:00:22.833Z,99866.28
2019-03-13T05:01:26.146Z,99869.28
2019-03-13T05:02:27.665Z,99871.95
2019-03-13T05:03:29.268Z,99877.64
2019-03-13T05:04:30.698Z,99870.95
2019-03-13T05:05:43.576Z,99874.97
2019-03-13T05:06:45.064Z,99870.44
2019-03-13T05:07:46.524Z,99872.95
2019-03-13T05:08:53.510Z,99873.11
2019-03-13T05:09:54.907Z,99873.96
2019-03-13T05:10:56.308Z,99869.28
2019-03-13T05:11:57.693Z,99875.45
2019-03-13T05:12:59.147Z,99864.76
2019-03-13T05:14:00.805Z,99861.75
2019-03-13T05:15:04.282Z,99870.63
2019-03-13T05:16:06.681Z,99871.95
2019-03-13T05:17:08.160Z,99871.95
2019-03-13T05:18:09.552Z,99868.43
2019-03-13T05:19:11.046Z,99865.27
2019-03-13T05:20:13.861Z,99871.44
2019-03-13T05:21:15.369Z,99867.43
2019-03-13T05:22:16.892Z,99870.95
2019-03-13T05:23:18.300Z,99861.59
2019-03-13T05:24:19.696Z,99867.28
2019-03-13T05:25:22.069Z,99860.59
2019-03-13T05:26:23.464Z,99860.59
2019-03-13T05:27:24.838Z,99863.60
2019-03-13T05:28:26.233Z,99859.59
2019-03-13T05:29:27.809Z,99854.73
2019-03-13T05:30:29.224Z,99855.92
2019-03-13T05:31:30.744Z,99852.91
2019-03-13T05:32:32.157Z,99853.25
2019-03-13T05:33:33.659Z,99851.91
2019-03-13T05:34:35.079Z,99845.23
2019-03-13T05:35:36.447Z,99847.90
2019-03-13T05:36:37.849Z,99845.74
2019-03-13T05:37:39.221Z,99848.91
2019-03-13T05:38:40.700Z,99843.55
2019-03-13T05:39:42.270Z,99849.75
2019-03-13T05:40:43.679Z,99850.57
2019-03-13T05:41:45.107Z,99837.36
2019-03-13T05:42:46.520Z,99847.08
2019-03-13T05:43:47.927Z,99835.05
2019-03-13T05:44:49.328Z,99840.73
2019-03-13T05:45:50.709Z,99839.88
2019-03-13T05:46:52.107Z,99845.55
2019-03-13T05:47:53.474Z,99838.88
2019-03-13T05:48:55.952Z,99845.08
2019-03-13T05:49:57.355Z,99841.55
2019-03-13T05:50:58.830Z,99841.88
2019-03-13T05:52:00.238Z,99840.87
2019-03-13T05:53:01.619Z,99836.53
2019-03-13T05:54:03.317Z,99841.55
2019-03-13T05:55:07.732Z,99841.39
2019-03-13T05:56:09.137Z,99840.55
2019-03-13T05:57:11.850Z,99835.53
2019-03-13T05:58:13.263Z,99836.87
2019-03-13T05:59:14.676Z,99833.70
2019-03-13T06:00:17.973Z,99827.52
2019-03-13T06:01:19.349Z,99833.70
2019-03-13T06:02:20.844Z,99832.86
2019-03-13T06:03:22.217Z,99827.52
2019-03-13T06:04:23.732Z,99830.19
2019-03-13T06:05:25.132Z,99825.84
2019-03-13T06:06:26.640Z,99819.16
2019-03-13T06:07:28.062Z,99829.52
2019-03-13T06:08:29.453Z,99829.85
2019-03-13T06:09:31.016Z,99831.52
2019-03-13T06:10:32.422Z,99828.85
2019-03-13T06:11:33.809Z,99823.02
2019-03-13T06:12:35.196Z,99826.36
2019-03-13T06:13:36.581Z,99826.17
2019-03-13T06:14:37.966Z,99821.00
2019-03-13T06:15:39.397Z,99830.17
2019-03-13T06:16:40.777Z,99825.01
2019-03-13T06:17:42.173Z,99831.69
2019-03-13T06:18:43.560Z,99831.87
2019-03-13T06:19:44.955Z,99830.67
2019-03-13T06:20:46.369Z,99830.19
2019-03-13T06:21:47.756Z,99827.98
2019-03-13T06:22:50.165Z,99830.66
2019-03-13T06:23:51.673Z,99827.48
2019-03-13T06:24:53.074Z,99825.31
2019-03-13T06:25:54.484Z,99821.95
2019-03-13T06:26:55.862Z,99824.62
2019-03-13T06:27:57.262Z,99823.93
2019-03-13T06:28:58.638Z,99818.44
2019-03-13T06:30:00.036Z,99821.77
2019-03-13T06:31:01.520Z,99823.75
2019-03-13T06:32:04.008Z,99819.86
2019-03-13T06:33:05.388Z,99808.48
2019-03-13T06:34:06.810Z,99819.84
2019-03-13T06:35:08.594Z,99813.61
2019-03-13T06:36:09.988Z,99810.56
2019-03-13T06:37:11.369Z,99806.55
2019-03-13T06:38:12.770Z,99799.97
2019-03-13T06:39:14.260Z,99802.63
2019-03-13T06:40:19.913Z,99811.14
2019-03-13T06:41:21.321Z,99803.08
2019-03-13T06:42:22.707Z,99797.53
2019-03-13T06:43:24.095Z,99807.69
2019-03-13T06:44:25.476Z,99806.66
2019-03-13T06:45:26.969Z,99804.01
2019-03-13T06:46:28.383Z,99799.11
2019-03-13T06:47:29.762Z,99803.95
2019-03-13T06:48:31.163Z,99797.38
2019-03-13T06:49:32.642Z,99796.86
2019-03-13T06:50:34.044Z,99798.66
2019-03-13T06:51:35.464Z,99798.82
2019-03-13T06:52:36.845Z,99796.11
2019-03-13T06:53:39.229Z,99800.62
2019-03-13T06:54:40.725Z,99799.93
2019-03-13T06:55:42.129Z,99798.72
2019-03-13T06:56:43.526Z,99794.86
2019-03-13T06:57:44.908Z,99797.67
2019-03-13T06:58:50.894Z,99794.49
2019-03-13T07:00:05.793Z,99801.36
2019-03-13T07:01:24.277Z,99796.66
2019-03-13T07:02:33.268Z,99790.59
2019-03-13T07:03:39.462Z,99787.23
2019-03-13T07:04:57.938Z,99793.93
2019-03-13T07:06:13.387Z,99792.27
2019-03-13T07:07:25.925Z,99787.55
2019-03-13T07:08:30.318Z,99795.08
2019-03-13T07:09:33.594Z,99786.02
2019-03-13T07:10:36.972Z,99790.23
2019-03-13T07:11:40.252Z,99781.66
2019-03-13T07:12:43.460Z,99786.21
2019-03-13T07:13:58.808Z,99787.55
2019-03-13T07:15:10.724Z,99783.86
2019-03-13T07:16:20.093Z,99786.98
2019-03-13T07:17:29.226Z,99792.19
2019-03-13T07:18:32.542Z,99796.91
2019-03-13T07:19:44.551Z,99795.88
2019-03-13T07:20:47.815Z,99790.69
2019-03-13T07:22:02.994Z,99783.49
2019-03-13T07:23:21.152Z,99793.70
2019-03-13T07:24:24.441Z,99794.18
2019-03-13T07:25:27.762Z,99790.28
2019-03-13T07:26:33.860Z,99788.29
2019-03-13T07:27:42.790Z,99792.31
2019-03-13T07:28:46.099Z,99786.63
2019-03-13T07:29:49.415Z,99788.29
2019-03-13T07:30:58.618Z,99788.98
2019-03-13T07:32:01.895Z,99785.80
2019-03-13T07:33:07.966Z,99788.98
2019-03-13T07:34:26.403Z,99783.81
2019-03-13T07:35:46.725Z,99780.81
2019-03-13T07:36:58.774Z,99785.65
2019-03-13T07:38:04.844Z,99786.50
2019-03-13T07:39:11.112Z,99783.16
2019-03-13T07:40:26.280Z,99779.51
2019-03-13T07:41:46.710Z,99785.56
2019-03-13T07:43:05.470Z,99784.22
2019-03-13T07:44:17.449Z,99784.71
2019-03-13T07:45:35.677Z,99779.22
2019-03-13T07:46:51.013Z,99768.83
2019-03-13T07:47:57.039Z,99782.23
2019-03-13T07:49:06.196Z,99778.25
2019-03-13T07:50:26.406Z,99771.91
2019-03-13T07:51:44.616Z,99779.63
2019-03-13T07:52:47.912Z,99773.58
2019-03-13T07:53:54.224Z,99769.23
2019-03-13T07:55:14.161Z,99775.28
2019-03-13T07:56:23.488Z,99769.59
2019-03-13T07:57:29.605Z,99774.46
2019-03-13T07:58:32.885Z,99765.24
2019-03-13T07:59:52.529Z,99771.63
2019-03-13T08:01:01.565Z,99772.30
2019-03-13T08:02:10.696Z,99767.59
2019-03-13T08:03:14.021Z,99770.28
2019-03-13T08:04:17.167Z,99764.10
2019-03-13T08:05:20.462Z,99761.91
2019-03-13T08:06:26.496Z,99769.14
2019-03-13T08:07:45.012Z,99767.80
2019-03-13T08:08:54.066Z,99769.14
2019-03-13T08:09:57.361Z,99772.59
2019-03-13T08:11:17.335Z,99770.93
2019-03-13T08:12:26.617Z,99767.11
2019-03-13T08:13:42.242Z,99770.44
2019-03-13T08:14:57.373Z,99768.77
2019-03-13T08:16:00.670Z,99769.27
2019-03-13T08:17:20.109Z,99763.91
2019-03-13T08:18:38.598Z,99773.28
2019-03-13T08:19:41.894Z,99769.46
2019-03-13T08:20:48.776Z,99767.59
2019-03-13T08:22:10.096Z,99770.80
2019-03-13T08:23:19.194Z,99769.14
2019-03-13T08:24:22.473Z,99773.61
2019-03-13T08:25:34.598Z,99765.56
2019-03-13T08:26:43.534Z,99770.11
2019-03-13T08:27:56.841Z,99776.62
2019-03-13T08:29:09.309Z,99765.89
2019-03-13T08:30:29.730Z,99757.36
2019-03-13T08:31:33.149Z,99762.20
2019-03-13T08:32:39.521Z,99757.48
2019-03-13T08:34:01.209Z,99755.50
2019-03-13T08:35:16.925Z,99755.17
2019-03-13T08:36:20.261Z,99754.31
2019-03-13T08:37:35.483Z,99749.28
2019-03-13T08:38:41.819Z,99749.13
2019-03-13T08:39:54.108Z,99747.41
2019-03-13T08:40:57.421Z,99743.07
2019-03-13T08:42:00.812Z,99751.95
2019-03-13T08:43:04.210Z,99745.75
2019-03-13T08:44:07.498Z,99748.11
2019-03-13T08:45:18.100Z,99749.44
2019-03-13T08:46:23.989Z,99738.55
2019-03-13T08:47:36.047Z,99740.02
2019-03-13T08:48:48.272Z,99737.17
2019-03-13T08:49:54.422Z,99734.66
2019-03-13T08:50:57.697Z,99731.77
2019-03-13T08:52:01.009Z,99728.59
2019-03-13T08:53:10.033Z,99726.41
2019-03-13T08:54:13.331Z,99725.72
2019-03-13T08:55:22.457Z,99733.07
2019-03-13T08:56:26.749Z,99721.20
2019-03-13T08:57:39.358Z,99725.23
2019-03-13T08:58:51.618Z,99723.36
2019-03-13T09:00:09.869Z,99723.69
2019-03-13T09:01:28.200Z,99726.37
2019-03-13T09:02:37.100Z,99715.64
2019-03-13T09:03:43.146Z,99725.55
2019-03-13T09:04:46.431Z,99715.69
2019-03-13T09:06:12.948Z,99723.41
2019-03-13T09:07:28.379Z,99714.22
2019-03-13T09:08:34.460Z,99719.91
2019-03-13T09:09:37.740Z,99712.52
2019-03-13T09:10:41.050Z,99711.87
2019-03-13T09:11:56.187Z,99718.58
2019-03-13T09:13:02.271Z,99723.61
2019-03-13T09:14:22.838Z,99711.05
2019-03-13T09:15:29.895Z,99713.20
2019-03-13T09:16:49.413Z,99711.70
2019-03-13T09:17:52.707Z,99707.68
2019-03-13T09:19:07.864Z,99697.60
2019-03-13T09:20:29.316Z,99712.88
2019-03-13T09:21:44.530Z,99707.84
2019-03-13T09:22:47.834Z,99706.82
2019-03-13T09:24:07.880Z,99705.48
2019-03-13T09:25:20.009Z,99698.63
2019-03-13T09:26:23.291Z,99698.13
2019-03-13T09:27:32.841Z,99688.39
2019-03-13T09:28:45.009Z,99700.12
2019-03-13T09:29:48.317Z,99699.80
2019-03-13T09:30:51.683Z,99693.09
2019-03-13T09:32:04.046Z,99692.78
2019-03-13T09:33:07.341Z,99691.77
2019-03-13T09:34:16.533Z,99687.41
2019-03-13T09:35:19.806Z,99685.58
2019-03-13T09:36:39.808Z,99686.40
2019-03-13T09:37:51.888Z,99686.40
2019-03-13T09:38:58.181Z,99685.70
2019-03-13T09:40:01.493Z,99678.68
2019-03-13T09:41:22.564Z,99689.08
2019-03-13T09:42:31.691Z,99686.07
2019-03-13T09:43:52.119Z,99677.02
2019-03-13T09:44:58.554Z,99675.55
2019-03-13T09:46:01.839Z,99672.55
2019-03-13T09:47:08.228Z,99676.41
2019-03-13T09:48:17.306Z,99669.26
2019-03-13T09:49:20.618Z,99671.09
2019-03-13T09:50:32.951Z,99669.09
2019-03-13T09:51:42.008Z,99660.89
2019-03-13T09:52:57.110Z,99660.69
2019-03-13T09:54:00.422Z,99659.35
2019-03-13T09:55:17.429Z,99660.37
2019-03-13T09:56:38.726Z,99651.67
2019-03-13T09:57:56.661Z,99649.32
2019-03-13T09:59:14.852Z,99657.52
2019-03-13T10:00:21.084Z,99647.28
2019-03-13T10:01:24.364Z,99658.34
2019-03-13T10:02:33.232Z,99648.63
2019-03-13T10:03:36.513Z,99646.64
2019-03-13T10:04:39.812Z,99647.12
2019-03-13T10:06:01.142Z,99651.63
2019-03-13T10:07:10.213Z,99641.76
2019-03-13T10:08:19.070Z,99652.28
2019-03-13T10:09:31.426Z,99636.07
2019-03-13T10:10:51.135Z,99638.92
2019-03-13T10:12:12.547Z,99642.77
2019-03-13T10:13:15.852Z,99637.58
2019-03-13T10:14:35.692Z,99645.63
2019-03-13T10:15:51.183Z,99634.13
2019-03-13T10:17:11.112Z,99635.96
2019-03-13T10:18:18.095Z,99635.63
2019-03-13T10:19:33.166Z,99632.95
2019-03-13T10:20:36.457Z,99635.31
2019-03-13T10:21:42.316Z,99633.97
2019-03-13T10:22:48.438Z,99626.78
2019-03-13T10:24:08.214Z,99635.31
2019-03-13T10:25:14.271Z,99630.28
2019-03-13T10:26:32.751Z,99630.55
2019-03-13T10:27:42.108Z,99630.23
2019-03-13T10:28:54.093Z,99618.81
2019-03-13T10:30:09.813Z,99622.52
2019-03-13T10:31:13.090Z,99618.33
2019-03-13T10:32:19.177Z,99626.05
2019-03-13T10:33:26.005Z,99617.89
2019-03-13T10:34:38.311Z,99612.48
2019-03-13T10:35:44.183Z,99622.52
2019-03-13T10:36:56.425Z,99620.68
2019-03-13T10:38:13.676Z,99617.48
2019-03-13T10:39:13.895Z,99610.60
2019-03-13T10:40:33.905Z,99609.06
2019-03-13T10:41:39.980Z,99615.97
2019-03-13T10:42:43.275Z,99608.38
2019-03-13T10:43:49.591Z,99612.27
2019-03-13T10:44:55.673Z,99606.27
2019-03-13T10:46:01.810Z,99616.78
2019-03-13T10:47:05.285Z,99617.63
2019-03-13T10:48:17.581Z,99601.02
2019-03-13T10:49:38.813Z,99605.04
2019-03-13T10:50:56.926Z,99610.23
2019-03-13T10:52:18.354Z,99607.03
2019-03-13T10:53:21.642Z,99611.05
2019-03-13T10:54:41.749Z,99608.57
2019-03-13T10:55:45.139Z,99608.42
2019-03-13T10:56:48.440Z,99614.10
2019-03-13T10:57:54.378Z,99606.75
2019-03-13T10:58:57.748Z,99593.34
2019-03-13T11:00:06.935Z,99607.08
2019-03-13T11:01:12.845Z,99603.26
2019-03-13T11:02:25.169Z,99602.56
2019-03-13T11:03:32.252Z,99603.38
2019-03-13T11:04:35.563Z,99602.89
2019-03-13T11:05:44.893Z,99597.00
2019-03-13T11:06:55.052Z,99601.55
2019-03-13T11:07:53.411Z,99592.98
2019-03-13T11:09:13.355Z,99593.50
2019-03-13T11:10:22.681Z,99597.00
2019-03-13T11:11:31.777Z,99579.73
2019-03-13T11:12:35.075Z,99583.92
2019-03-13T11:13:38.373Z,99591.96
2019-03-13T11:14:59.385Z,99580.09
2019-03-13T11:16:19.566Z,99586.80
2019-03-13T11:17:42.049Z,99582.90
2019-03-13T11:18:51.239Z,99577.05
2019-03-13T11:20:12.068Z,99585.58
2019-03-13T11:21:31.864Z,99583.11
2019-03-13T11:22:52.512Z,99572.38
2019-03-13T11:24:04.606Z,99568.84
2019-03-13T11:25:21.637Z,99573.20
2019-03-13T11:26:39.605Z,99577.74
2019-03-13T11:27:42.878Z,99566.00
2019-03-13T11:28:49.029Z,99567.34
2019-03-13T11:29:55.107Z,99568.84
2019-03-13T11:31:15.311Z,99575.23
2019-03-13T11:32:27.437Z,99574.09
2019-03-13T11:33:34.000Z,99567.19
2019-03-13T11:34:40.130Z,99573.24
2019-03-13T11:35:46.185Z,99560.22
2019-03-13T11:36:49.493Z,99566.27
2019-03-13T11:38:01.555Z,99564.28
2019-03-13T11:39:07.549Z,99565.63
2019-03-13T11:40:19.687Z,99558.75
2019-03-13T11:41:34.876Z,99559.24
2019-03-13T11:42:53.029Z,99568.78
2019-03-13T11:43:59.102Z,99560.22
2019-03-13T11:45:17.383Z,99561.06
2019-03-13T11:46:23.629Z,99552.05
2019-03-13T11:47:26.924Z,99553.19
2019-03-13T11:48:30.212Z,99553.07
2019-03-13T11:49:33.591Z,99550.23
2019-03-13T11:50:37.081Z,99557.26
2019-03-13T11:51:43.119Z,99554.25
2019-03-13T11:53:01.605Z,99550.06
2019-03-13T11:54:17.241Z,99551.20
2019-03-13T11:55:20.546Z,99544.33
2019-03-13T11:56:23.818Z,99548.35
2019-03-13T11:57:42.520Z,99545.03
2019-03-13T11:58:48.978Z,99545.52
2019-03-13T11:59:52.281Z,99543.48
2019-03-13T12:01:01.535Z,99548.20
2019-03-13T12:02:21.492Z,99544.70
2019-03-13T12:03:36.813Z,99539.14
2019-03-13T12:04:42.979Z,99533.41
2019-03-13T12:06:02.740Z,99534.75
2019-03-13T12:07:06.049Z,99532.39
2019-03-13T12:08:26.220Z,99534.00
2019-03-13T12:09:41.425Z,99525.58
2019-03-13T12:11:01.736Z,99526.70
2019-03-13T12:12:06.043Z,99525.19
2019-03-13T12:13:11.846Z,99517.96
2019-03-13T12:14:15.149Z,99524.83
2019-03-13T12:15:20.939Z,99513.78
2019-03-13T12:16:26.821Z,99516.47
2019-03-13T12:17:35.860Z,99518.66
2019-03-13T12:18:54.045Z,99515.45
2019-03-13T12:19:57.323Z,99517.14
2019-03-13T12:21:00.620Z,99514.26
2019-03-13T12:22:18.628Z,99513.13
2019-03-13T12:23:24.777Z,99508.75
2019-03-13T12:24:28.130Z,99518.11
2019-03-13T12:25:31.440Z,99510.38
2019-03-13T12:26:34.844Z,99511.52
2019-03-13T12:27:55.119Z,99510.70
2019-03-13T12:29:15.296Z,99502.84
2019-03-13T12:30:18.778Z,99505.29
2019-03-13T12:31:37.348Z,99506.10
2019-03-13T12:32:46.449Z,99497.41
2019-03-13T12:33:52.508Z,99499.61
2019-03-13T12:35:05.137Z,99495.96
2019-03-13T12:36:24.903Z,99481.53
2019-03-13T12:37:36.965Z,99500.63
2019-03-13T12:38:58.663Z,99490.71
2019-03-13T12:40:02.178Z,99493.08
2019-03-13T12:41:08.384Z,99493.39
2019-03-13T12:42:11.730Z,99494.62
2019-03-13T12:43:17.560Z,99486.58